createdAt,value
2019-04-07T00:01:55.957Z,59.20
2019-04-07T00:04:27.225Z,63.37
2019-04-07T00:06:59.841Z,63.77
2019-04-07T00:09:28.780Z,65.23
2019-04-07T00:11:57.686Z,67.17
2019-04-07T00:14:27.208Z,75.77
2019-04-07T00:16:58.666Z,68.10
2019-04-07T00:19:27.604Z,64.23
2019-04-07T00:21:59.386Z,58.97
2019-04-07T00:24:28.337Z,63.33
2019-04-07T00:27:00.242Z,61.83
2019-04-07T00:29:29.137Z,64.67
2019-04-07T00:32:00.863Z,61.70
2019-04-07T00:34:32.436Z,64.50
2019-04-07T00:37:01.395Z,67.47
2019-04-07T00:39:32.276Z,59.60
2019-04-07T00:42:01.804Z,65.57
2019-04-07T00:44:34.357Z,64.73
2019-04-07T00:47:04.094Z,61.47
2019-04-07T00:49:33.138Z,67.30
2019-04-07T00:52:03.882Z,66.37
2019-04-07T00:54:32.889Z,63.30
2019-04-07T00:57:01.960Z,67.60
2019-04-07T00:59:33.890Z,65.03
2019-04-07T01:02:02.835Z,69.17
2019-04-07T01:04:31.904Z,69.77
2019-04-07T01:07:02.857Z,66.13
2019-04-07T01:09:34.444Z,64.40
2019-04-07T01:12:04.021Z,66.90
2019-04-07T01:14:33.590Z,65.47
2019-04-07T01:17:06.127Z,67.53
2019-04-07T01:19:35.368Z,63.63
2019-04-07T01:22:05.462Z,65.20
2019-04-07T01:24:34.459Z,68.53
2019-04-07T01:27:03.907Z,64.53
2019-04-07T01:29:33.231Z,64.33
2019-04-07T01:32:02.248Z,71.20
2019-04-07T01:34:31.545Z,66.27
2019-04-07T01:37:02.049Z,70.27
2019-04-07T01:39:34.752Z,75.83
2019-04-07T01:42:24.341Z,71.67
2019-04-07T01:45:11.581Z,66.03
2019-04-07T01:47:58.538Z,72.17
2019-04-07T01:50:45.960Z,74.73
2019-04-07T01:53:33.579Z,71.70
2019-04-07T01:56:12.919Z,78.53
2019-04-07T01:58:56.114Z,75.00
2019-04-07T02:01:27.356Z,68.70
2019-04-07T02:04:04.090Z,67.03
2019-04-07T02:06:37.399Z,69.27
2019-04-07T02:09:12.732Z,64.00
2019-04-07T02:11:46.262Z,69.23
2019-04-07T02:14:16.890Z,68.30
2019-04-07T02:17:02.620Z,75.53
2019-04-07T02:19:33.685Z,81.00
2019-04-07T02:22:13.825Z,71.00
2019-04-07T02:24:57.595Z,75.53
2019-04-07T02:27:28.419Z,80.70
2019-04-07T02:29:59.069Z,75.83
2019-04-07T02:32:46.224Z,78.73
2019-04-07T02:35:20.776Z,76.70
2019-04-07T02:37:52.702Z,86.87
2019-04-07T02:40:42.641Z,78.80
2019-04-07T02:43:30.913Z,78.27
2019-04-07T02:46:04.259Z,76.87
2019-04-07T02:48:50.990Z,73.87
2019-04-07T02:51:33.887Z,80.37
2019-04-07T02:54:07.763Z,72.90
2019-04-07T02:56:47.420Z,73.87
2019-04-07T02:59:20.580Z,72.93
2019-04-07T03:01:52.011Z,74.80
2019-04-07T03:04:44.432Z,73.87
2019-04-07T03:07:24.980Z,74.70
2019-04-07T03:10:12.979Z,74.53
2019-04-07T03:13:01.585Z,83.17
2019-04-07T03:15:41.675Z,81.50
2019-04-07T03:18:15.121Z,82.93
2019-04-07T03:20:45.634Z,82.13
2019-04-07T03:23:32.288Z,83.43
2019-04-07T03:26:15.204Z,76.00
2019-04-07T03:28:55.666Z,81.87
2019-04-07T03:31:29.700Z,86.00
2019-04-07T03:34:06.135Z,91.10
2019-04-07T03:37:09.625Z,79.57
2019-04-07T03:39:19.094Z,90.27
2019-04-07T03:42:01.483Z,82.10
2019-04-07T03:44:37.251Z,88.70
2019-04-07T03:47:14.394Z,80.37
2019-04-07T03:49:45.675Z,85.10
2019-04-07T03:52:26.695Z,79.17
2019-04-07T03:54:59.882Z,79.97
2019-04-07T03:57:36.277Z,77.20
2019-04-07T04:00:10.702Z,78.27
2019-04-07T04:02:46.890Z,80.97
2019-04-07T04:05:17.363Z,81.57
2019-04-07T04:07:47.885Z,84.53
2019-04-07T04:10:27.430Z,91.23
2019-04-07T04:12:58.650Z,81.73
2019-04-07T04:15:31.262Z,90.07
2019-04-07T04:18:03.355Z,78.97
2019-04-07T04:20:35.423Z,83.87
2019-04-07T04:23:04.727Z,78.60
2019-04-07T04:25:34.099Z,82.17
2019-04-07T04:28:03.169Z,92.03
2019-04-07T04:30:32.101Z,88.40
2019-04-07T04:33:04.099Z,88.97
2019-04-07T04:35:33.059Z,86.27
2019-04-07T04:38:05.914Z,86.17
2019-04-07T04:40:37.552Z,90.10
2019-04-07T04:43:06.778Z,81.43
2019-04-07T04:45:36.321Z,76.03
2019-04-07T04:48:06.554Z,75.87
2019-04-07T04:50:35.741Z,79.77
2019-04-07T04:53:04.620Z,73.20
2019-04-07T04:55:33.801Z,79.97
2019-04-07T04:58:02.885Z,76.37
2019-04-07T05:00:32.162Z,72.17
2019-04-07T05:03:02.742Z,70.20
2019-04-07T05:05:34.654Z,81.20
2019-04-07T05:08:05.323Z,66.60
2019-04-07T05:10:34.783Z,71.33
2019-04-07T05:13:04.533Z,63.83
2019-04-07T05:15:34.216Z,68.13
2019-04-07T05:18:06.434Z,66.57
2019-04-07T05:20:35.581Z,65.70
2019-04-07T05:23:05.187Z,65.17
2019-04-07T05:25:34.911Z,67.73
2019-04-07T05:28:04.628Z,62.77
2019-04-07T05:30:33.764Z,63.07
2019-04-07T05:33:05.651Z,63.60
2019-04-07T05:35:35.081Z,61.13
2019-04-07T05:38:06.599Z,59.10
2019-04-07T05:40:34.666Z,71.40
2019-04-07T05:43:07.124Z,60.60
2019-04-07T05:45:37.478Z,65.23
2019-04-07T05:48:06.585Z,66.47
2019-04-07T05:50:36.033Z,67.97
2019-04-07T05:53:06.820Z,68.20
2019-04-07T05:55:35.817Z,62.70
2019-04-07T05:58:07.234Z,54.50
2019-04-07T06:00:35.336Z,59.47
2019-04-07T06:03:06.651Z,60.30
2019-04-07T06:05:35.657Z,61.80
2019-04-07T06:08:21.277Z,58.53
2019-04-07T06:10:35.766Z,54.67
2019-04-07T06:13:05.344Z,58.93
2019-04-07T06:15:35.677Z,59.50
2019-04-07T06:18:05.132Z,57.63
2019-04-07T06:20:34.385Z,59.27
2019-04-07T06:23:04.922Z,56.17
2019-04-07T06:25:38.125Z,56.27
2019-04-07T06:28:05.408Z,59.60
2019-04-07T06:30:36.238Z,52.90
2019-04-07T06:33:07.287Z,53.00
2019-04-07T06:35:36.536Z,55.73
2019-04-07T06:38:11.125Z,53.47
2019-04-07T06:40:40.466Z,56.23
2019-04-07T06:43:09.540Z,57.47
2019-04-07T06:45:40.037Z,52.03
2019-04-07T06:48:11.340Z,56.80
2019-04-07T06:50:54.795Z,55.63
2019-04-07T06:53:23.532Z,55.77
2019-04-07T06:55:58.444Z,51.00
2019-04-07T06:58:26.625Z,55.87
2019-04-07T07:00:58.327Z,49.40
2019-04-07T07:03:49.694Z,55.00
2019-04-07T07:06:20.275Z,52.80
2019-04-07T07:08:54.198Z,54.17
2019-04-07T07:11:31.207Z,53.37
2019-04-07T07:14:06.404Z,57.80
2019-04-07T07:16:55.318Z,58.23
2019-04-07T07:19:32.832Z,55.70
2019-04-07T07:22:16.602Z,48.80
2019-04-07T07:24:47.287Z,52.23
2019-04-07T07:27:16.517Z,56.20
2019-04-07T07:29:47.289Z,54.57
2019-04-07T07:32:16.036Z,49.53
2019-04-07T07:34:44.979Z,50.90
2019-04-07T07:37:13.873Z,50.60
2019-04-07T07:39:45.097Z,51.07
2019-04-07T07:42:13.765Z,54.97
2019-04-07T07:44:42.856Z,52.97
2019-04-07T07:47:11.972Z,54.97
2019-04-07T07:49:41.492Z,51.93
2019-04-07T07:52:11.609Z,52.20
2019-04-07T07:54:41.066Z,49.13
2019-04-07T07:57:10.034Z,49.53
2019-04-07T07:59:40.188Z,50.80
2019-04-07T08:02:09.807Z,49.93
2019-04-07T08:04:38.817Z,55.50
2019-04-07T08:07:10.819Z,55.73
2019-04-07T08:09:38.295Z,50.13
2019-04-07T08:12:07.300Z,52.00
2019-04-07T08:14:37.068Z,47.47
2019-04-07T08:17:06.138Z,49.37
2019-04-07T08:19:40.815Z,51.67
2019-04-07T08:22:08.744Z,49.83
2019-04-07T08:24:37.790Z,51.70
2019-04-07T08:27:07.314Z,51.00
2019-04-07T08:29:37.562Z,52.23
2019-04-07T08:32:07.642Z,50.80
2019-04-07T08:34:37.227Z,47.07
2019-04-07T08:37:06.261Z,49.27
2019-04-07T08:39:37.484Z,59.10
2019-04-07T08:42:11.023Z,54.63
2019-04-07T08:44:38.650Z,55.40
2019-04-07T08:47:10.737Z,49.87
2019-04-07T08:49:38.151Z,58.63
2019-04-07T08:52:09.787Z,54.87
2019-04-07T08:54:37.641Z,50.13
2019-04-07T08:57:07.098Z,54.53
2019-04-07T08:59:39.904Z,56.90
2019-04-07T09:02:07.585Z,53.60
2019-04-07T09:04:36.716Z,52.93
2019-04-07T09:07:05.670Z,61.07
2019-04-07T09:09:40.378Z,59.17
2019-04-07T09:12:08.166Z,54.53
2019-04-07T09:14:39.456Z,52.80
2019-04-07T09:17:30.725Z,49.60
2019-04-07T09:20:10.682Z,55.87
2019-04-07T09:22:57.244Z,54.93
2019-04-07T09:25:32.042Z,54.70
2019-04-07T09:28:23.987Z,53.83
2019-04-07T09:30:57.437Z,53.77
2019-04-07T09:33:33.697Z,54.17
2019-04-07T09:36:12.422Z,49.97
2019-04-07T09:39:01.852Z,60.10
2019-04-07T09:41:44.054Z,56.47
2019-04-07T09:44:27.828Z,51.97
2019-04-07T09:47:16.358Z,53.07
2019-04-07T09:49:56.166Z,52.93
2019-04-07T09:52:30.508Z,53.37
2019-04-07T09:55:09.167Z,52.50
2019-04-07T09:57:40.863Z,49.73
2019-04-07T10:00:22.890Z,49.50
2019-04-07T10:02:53.023Z,58.10
2019-04-07T10:05:26.229Z,51.50
2019-04-07T10:08:13.889Z,55.73
2019-04-07T10:10:57.244Z,48.57
2019-04-07T10:13:45.252Z,52.13
2019-04-07T10:16:36.416Z,58.37
2019-04-07T10:19:15.746Z,48.97
2019-04-07T10:22:03.227Z,54.03
2019-04-07T10:24:52.229Z,51.87
2019-04-07T10:27:33.034Z,49.23
2019-04-07T10:30:06.782Z,45.60
2019-04-07T10:32:47.690Z,48.50
2019-04-07T10:35:33.520Z,49.17
2019-04-07T10:38:22.209Z,48.07
2019-04-07T10:41:10.898Z,49.73
2019-04-07T10:43:57.835Z,50.13
2019-04-07T10:46:29.133Z,46.77
2019-04-07T10:49:00.344Z,45.03
2019-04-07T10:51:31.965Z,47.77
2019-04-07T10:54:15.662Z,48.60
2019-04-07T10:56:46.354Z,47.77
2019-04-07T10:59:17.477Z,46.30
2019-04-07T11:02:07.033Z,43.70
2019-04-07T11:04:37.733Z,48.37
2019-04-07T11:07:11.507Z,50.80
2019-04-07T11:09:42.628Z,44.77
2019-04-07T11:12:30.426Z,44.83
2019-04-07T11:15:15.740Z,46.83
2019-04-07T11:18:03.086Z,47.27
2019-04-07T11:20:33.830Z,44.67
2019-04-07T11:23:13.600Z,47.10
2019-04-07T11:26:00.844Z,42.80
2019-04-07T11:28:31.828Z,48.77
2019-04-07T11:31:02.426Z,49.20
2019-04-07T11:33:36.199Z,46.63
2019-04-07T11:36:10.639Z,43.17
2019-04-07T11:38:44.194Z,45.10
2019-04-07T11:41:14.750Z,43.70
2019-04-07T11:44:01.913Z,44.37
2019-04-07T11:46:33.004Z,45.77
2019-04-07T11:49:13.462Z,46.67
2019-04-07T11:51:44.353Z,43.90
2019-04-07T11:54:33.927Z,39.87
2019-04-07T11:57:06.958Z,41.53
2019-04-07T11:59:37.796Z,50.83
2019-04-07T12:02:08.993Z,42.63
2019-04-07T12:04:40.397Z,41.47
2019-04-07T12:07:14.489Z,47.10
2019-04-07T12:09:54.247Z,42.93
2019-04-07T12:12:42.004Z,42.10
2019-04-07T12:15:30.212Z,41.67
2019-04-07T12:18:04.370Z,45.57
2019-04-07T12:20:45.120Z,46.00
2019-04-07T12:23:23.331Z,40.30
2019-04-07T12:25:52.827Z,41.57
2019-04-07T12:28:26.709Z,40.43
2019-04-07T12:31:00.102Z,45.73
2019-04-07T12:33:38.539Z,40.93
2019-04-07T12:36:11.826Z,43.20
2019-04-07T12:39:00.442Z,42.83
2019-04-07T12:41:47.631Z,43.17
2019-04-07T12:44:21.866Z,43.37
2019-04-07T12:47:09.172Z,41.07
2019-04-07T12:49:46.113Z,43.87
2019-04-07T12:52:34.190Z,43.20
2019-04-07T12:55:20.931Z,39.20
2019-04-07T12:57:58.217Z,39.70
2019-04-07T13:00:55.703Z,39.77
2019-04-07T13:03:28.888Z,45.87
2019-04-07T13:06:06.257Z,41.60
2019-04-07T13:08:34.919Z,38.57
2019-04-07T13:11:10.633Z,42.63
2019-04-07T13:13:49.471Z,38.63
2019-04-07T13:16:25.336Z,39.63
2019-04-07T13:19:02.251Z,38.10
2019-04-07T13:21:34.048Z,42.40
2019-04-07T13:24:11.628Z,36.07
2019-04-07T13:26:52.119Z,37.20
2019-04-07T13:29:32.379Z,33.73
2019-04-07T13:32:20.652Z,35.17
2019-04-07T13:35:01.257Z,35.33
2019-04-07T13:37:33.632Z,37.40
2019-04-07T13:40:05.019Z,44.73
2019-04-07T13:42:48.094Z,42.00
2019-04-07T13:45:28.980Z,41.90
2019-04-07T13:48:03.475Z,37.60
2019-04-07T13:50:37.114Z,32.30
2019-04-07T13:53:07.721Z,39.73
2019-04-07T13:55:58.263Z,36.90
2019-04-07T13:58:35.331Z,40.27
2019-04-07T14:01:07.396Z,40.40
2019-04-07T14:03:44.446Z,35.00
2019-04-07T14:06:16.186Z,34.63
2019-04-07T14:08:56.985Z,38.10
2019-04-07T14:11:31.803Z,36.07
2019-04-07T14:14:18.989Z,37.37
2019-04-07T14:17:06.275Z,31.20
2019-04-07T14:19:37.361Z,32.50
2019-04-07T14:22:17.631Z,39.47
2019-04-07T14:25:04.426Z,34.43
2019-04-07T14:27:40.557Z,34.63
2019-04-07T14:30:28.029Z,34.40
2019-04-07T14:33:02.164Z,36.43
2019-04-07T14:35:42.147Z,29.37
2019-04-07T14:38:13.592Z,37.33
2019-04-07T14:40:53.076Z,31.17
2019-04-07T14:43:35.130Z,31.47
2019-04-07T14:46:04.457Z,33.73
2019-04-07T14:48:47.964Z,27.80
2019-04-07T14:51:19.560Z,30.47
2019-04-07T14:53:54.080Z,33.57
2019-04-07T14:56:34.170Z,31.30
2019-04-07T14:59:21.930Z,30.30
2019-04-07T15:02:00.474Z,28.27
2019-04-07T15:04:30.261Z,28.67
2019-04-07T15:07:10.063Z,31.50
2019-04-07T15:09:41.374Z,32.93
2019-04-07T15:12:18.532Z,37.53
2019-04-07T15:14:42.725Z,44.83
2019-04-07T15:17:12.054Z,37.63
2019-04-07T15:19:41.155Z,39.13
2019-04-07T15:22:10.081Z,35.30
2019-04-07T15:24:39.579Z,38.27
2019-04-07T15:27:08.648Z,40.90
2019-04-07T15:29:41.375Z,42.03
2019-04-07T15:32:08.144Z,39.83
2019-04-07T15:34:39.556Z,42.03
2019-04-07T15:37:07.872Z,37.23
2019-04-07T15:39:37.457Z,37.50
2019-04-07T15:42:09.328Z,36.50
2019-04-07T15:44:39.645Z,42.03
2019-04-07T15:47:09.270Z,31.87
2019-04-07T15:49:38.785Z,35.67
2019-04-07T15:52:10.043Z,34.83
2019-04-07T15:54:39.135Z,33.00
2019-04-07T15:57:08.919Z,34.73
2019-04-07T15:59:39.686Z,40.30
2019-04-07T16:02:11.214Z,35.50
2019-04-07T16:04:40.731Z,33.07
2019-04-07T16:07:10.292Z,32.33
2019-04-07T16:09:49.419Z,41.37
2019-04-07T16:12:10.036Z,37.03
2019-04-07T16:14:40.272Z,34.57
2019-04-07T16:17:10.774Z,36.47
2019-04-07T16:19:43.092Z,31.20
2019-04-07T16:22:12.588Z,32.70
2019-04-07T16:24:41.648Z,31.90
2019-04-07T16:27:10.982Z,36.83
2019-04-07T16:29:40.909Z,35.63
2019-04-07T16:32:11.304Z,33.30
2019-04-07T16:34:42.180Z,32.80
2019-04-07T16:37:11.642Z,33.87
2019-04-07T16:39:42.575Z,39.33
2019-04-07T16:42:14.099Z,32.83
2019-04-07T16:44:44.122Z,32.80
2019-04-07T16:47:20.892Z,32.17
2019-04-07T16:49:46.622Z,29.57
2019-04-07T16:52:14.217Z,28.00
2019-04-07T16:54:44.608Z,29.23
2019-04-07T16:57:13.884Z,30.50
2019-04-07T16:59:43.562Z,35.73
2019-04-07T17:02:14.472Z,32.43
2019-04-07T17:04:43.149Z,31.87
2019-04-07T17:07:15.327Z,29.83
2019-04-07T17:09:42.664Z,25.67
2019-04-07T17:12:12.440Z,39.17
2019-04-07T17:14:42.232Z,32.53
2019-04-07T17:17:11.198Z,31.13
2019-04-07T17:19:41.747Z,33.63
2019-04-07T17:22:13.242Z,33.00
2019-04-07T17:24:42.681Z,35.87
2019-04-07T17:27:11.877Z,32.83
2019-04-07T17:29:41.560Z,36.83
2019-04-07T17:32:10.945Z,39.53
2019-04-07T17:34:41.748Z,43.53
2019-04-07T17:37:10.735Z,37.63
2019-04-07T17:39:41.953Z,45.33
2019-04-07T17:42:12.757Z,39.93
2019-04-07T17:44:49.156Z,41.07
2019-04-07T17:47:17.945Z,43.73
2019-04-07T17:49:48.487Z,37.17
2019-04-07T17:52:27.887Z,42.30
2019-04-07T17:55:10.650Z,37.43
2019-04-07T17:57:54.731Z,36.77
2019-04-07T18:00:37.383Z,35.47
2019-04-07T18:03:11.621Z,38.73
2019-04-07T18:06:00.220Z,37.43
2019-04-07T18:08:34.294Z,37.13
2019-04-07T18:11:23.221Z,50.73
2019-04-07T18:13:58.642Z,45.20
2019-04-07T18:16:40.791Z,43.67
2019-04-07T18:19:20.817Z,47.10
2019-04-07T18:21:55.052Z,43.30
2019-04-07T18:24:34.046Z,42.20
2019-04-07T18:27:23.246Z,38.97
2019-04-07T18:29:59.664Z,42.67
2019-04-07T18:32:28.960Z,44.97
2019-04-07T18:35:11.571Z,47.87
2019-04-07T18:37:44.563Z,45.03
2019-04-07T18:40:18.072Z,43.10
2019-04-07T18:42:57.800Z,42.27
2019-04-07T18:45:37.327Z,37.87
2019-04-07T18:48:14.693Z,37.87
2019-04-07T18:51:01.628Z,36.13
2019-04-07T18:53:50.453Z,40.63
2019-04-07T18:56:23.638Z,47.63
2019-04-07T18:59:10.434Z,45.30
2019-04-07T19:01:57.831Z,53.87
2019-04-07T19:04:30.284Z,51.47
2019-04-07T19:07:09.818Z,52.83
2019-04-07T19:09:43.877Z,50.37
2019-04-07T19:12:23.232Z,49.47
2019-04-07T19:15:02.476Z,51.37
2019-04-07T19:17:32.643Z,51.27
2019-04-07T19:20:10.864Z,43.63
2019-04-07T19:22:41.531Z,49.90
2019-04-07T19:25:21.538Z,53.43
2019-04-07T19:27:54.130Z,47.30
2019-04-07T19:30:26.553Z,50.33
2019-04-07T19:33:12.569Z,48.13
2019-04-07T19:35:49.818Z,49.13
2019-04-07T19:38:32.499Z,44.63
2019-04-07T19:41:12.032Z,49.50
2019-04-07T19:43:44.448Z,54.80
2019-04-07T19:46:14.710Z,53.87
2019-04-07T19:48:49.044Z,56.17
2019-04-07T19:51:32.046Z,51.83
2019-04-07T19:54:14.510Z,55.03
2019-04-07T19:56:46.472Z,55.07
2019-04-07T19:59:39.335Z,60.53
2019-04-07T20:02:13.229Z,50.80
2019-04-07T20:04:52.452Z,53.33
2019-04-07T20:07:35.231Z,52.50
2019-04-07T20:10:08.647Z,58.17
2019-04-07T20:12:48.251Z,49.70
2019-04-07T20:15:29.682Z,49.40
2019-04-07T20:18:08.413Z,56.43
2019-04-07T20:20:50.643Z,50.77
2019-04-07T20:23:33.166Z,44.27
2019-04-07T20:26:11.767Z,44.70
2019-04-07T20:28:52.034Z,45.20
2019-04-07T20:31:23.887Z,48.93
2019-04-07T20:34:05.770Z,45.37
2019-04-07T20:36:35.967Z,44.53
2019-04-07T20:39:09.371Z,41.50
2019-04-07T20:41:58.814Z,47.47
2019-04-07T20:44:34.068Z,37.53
2019-04-07T20:47:10.322Z,45.23
2019-04-07T20:49:48.212Z,41.87
2019-04-07T20:52:22.293Z,36.50
2019-04-07T20:55:08.597Z,40.27
2019-04-07T20:58:10.300Z,41.40
2019-04-07T21:00:28.527Z,33.20
2019-04-07T21:03:19.380Z,34.80
2019-04-07T21:05:46.241Z,40.27
2019-04-07T21:08:35.647Z,37.73
2019-04-07T21:11:09.172Z,37.30
2019-04-07T21:13:56.668Z,41.13
2019-04-07T21:16:29.468Z,38.93
2019-04-07T21:19:05.527Z,39.73
2019-04-07T21:21:34.928Z,36.97
2019-04-07T21:24:18.230Z,39.80
2019-04-07T21:26:58.119Z,39.60
2019-04-07T21:29:38.597Z,38.93
2019-04-07T21:32:18.686Z,43.67
2019-04-07T21:34:56.194Z,39.57
2019-04-07T21:37:46.845Z,43.97
2019-04-07T21:40:19.794Z,42.60
2019-04-07T21:43:07.372Z,44.80
2019-04-07T21:45:43.674Z,39.73
2019-04-07T21:48:11.667Z,44.20
2019-04-07T21:50:48.319Z,35.80
2019-04-07T21:53:30.279Z,43.47
2019-04-07T21:56:14.162Z,39.70
2019-04-07T21:58:47.453Z,40.23
2019-04-07T22:01:21.205Z,40.00
2019-04-07T22:03:54.769Z,41.00
2019-04-07T22:06:26.549Z,39.23
2019-04-07T22:09:14.673Z,40.20
2019-04-07T22:11:44.564Z,36.50
2019-04-07T22:14:14.658Z,37.50
2019-04-07T22:16:47.097Z,40.90
2019-04-07T22:19:16.669Z,42.70
2019-04-07T22:21:46.460Z,42.80
2019-04-07T22:24:15.798Z,41.40
2019-04-07T22:26:49.211Z,41.07
2019-04-07T22:29:16.120Z,46.20
2019-04-07T22:31:47.789Z,39.03
2019-04-07T22:34:16.912Z,42.23
2019-04-07T22:36:47.894Z,38.30
2019-04-07T22:39:16.395Z,41.60
2019-04-07T22:41:46.174Z,37.40
2019-04-07T22:44:15.531Z,35.87
2019-04-07T22:46:48.071Z,40.97
2019-04-07T22:49:15.593Z,43.37
2019-04-07T22:51:47.064Z,40.30
2019-04-07T22:54:15.225Z,43.90
2019-04-07T22:56:46.823Z,35.43
2019-04-07T22:59:15.763Z,38.17
2019-04-07T23:01:44.661Z,37.10
2019-04-07T23:04:16.549Z,45.07
2019-04-07T23:06:45.454Z,37.67
2019-04-07T23:09:14.391Z,39.33
2019-04-07T23:11:44.757Z,35.27
2019-04-07T23:14:16.432Z,41.07
2019-04-07T23:16:45.326Z,32.60
2019-04-07T23:19:14.355Z,32.63
2019-04-07T23:21:43.359Z,30.50
2019-04-07T23:24:14.992Z,31.27
2019-04-07T23:26:44.644Z,31.73
2019-04-07T23:29:17.641Z,30.27
2019-04-07T23:31:47.203Z,26.13
2019-04-07T23:34:16.969Z,21.17
2019-04-07T23:36:46.084Z,22.90
2019-04-07T23:39:15.290Z,21.00
2019-04-07T23:41:47.068Z,18.43
2019-04-07T23:44:16.142Z,16.87
2019-04-07T23:46:45.313Z,16.57
2019-04-07T23:49:15.151Z,21.83
2019-04-07T23:51:44.151Z,19.77
2019-04-07T23:54:14.404Z,13.90
2019-04-07T23:56:44.901Z,14.77
2019-04-07T23:59:16.912Z,15.60
